createdAt,value
2023-04-21T00:00:33.161Z,26.86
2023-04-21T00:01:33.219Z,26.85
2023-04-21T00:02:35.879Z,26.85
2023-04-21T00:03:33.520Z,26.85
2023-04-21T00:04:33.384Z,26.85
2023-04-21T00:05:33.428Z,26.86
2023-04-21T00:06:33.274Z,26.87
2023-04-21T00:07:33.226Z,26.85
2023-04-21T00:08:33.253Z,26.85
2023-04-21T00:09:33.226Z,26.87
2023-04-21T00:10:33.217Z,26.83
2023-04-21T00:11:33.223Z,26.83
2023-04-21T00:12:33.195Z,26.85
2023-04-21T00:13:33.209Z,26.85
2023-04-21T00:14:33.189Z,26.85
2023-04-21T00:15:33.203Z,26.83
2023-04-21T00:16:33.382Z,26.83
2023-04-21T00:17:33.227Z,26.85
2023-04-21T00:18:33.157Z,26.83
2023-04-21T00:19:33.202Z,26.86
2023-04-21T00:20:33.180Z,26.83
2023-04-21T00:21:33.172Z,26.83
2023-04-21T00:22:33.177Z,26.85
2023-04-21T00:23:33.141Z,26.85
2023-04-21T00:24:33.157Z,26.83
2023-04-21T00:25:33.135Z,26.83
2023-04-21T00:26:33.110Z,26.85
2023-04-21T00:27:33.150Z,26.85
2023-04-21T00:28:33.124Z,26.85
2023-04-21T00:29:33.108Z,26.82
2023-04-21T00:30:33.109Z,26.85
2023-04-21T00:31:33.150Z,26.85
2023-04-21T00:32:33.110Z,26.86
2023-04-21T00:33:33.074Z,26.85
2023-04-21T00:34:33.067Z,26.85
2023-04-21T00:35:33.064Z,26.83
2023-04-21T00:36:33.044Z,26.85
2023-04-21T00:37:33.070Z,26.82
2023-04-21T00:38:33.055Z,26.86
2023-04-21T00:39:33.049Z,26.82
2023-04-21T00:40:33.011Z,26.85
2023-04-21T00:41:33.027Z,26.85
2023-04-21T00:42:32.997Z,26.82
2023-04-21T00:43:33.025Z,26.82
2023-04-21T00:44:32.998Z,26.83
2023-04-21T00:45:33.000Z,26.83
2023-04-21T00:46:33.065Z,26.83
2023-04-21T00:47:32.979Z,26.85
2023-04-21T00:48:33.001Z,26.85
2023-04-21T00:49:33.036Z,26.85
2023-04-21T00:50:33.114Z,26.85
2023-04-21T00:51:33.207Z,26.82
2023-04-21T00:52:33.206Z,26.86
2023-04-21T00:53:33.269Z,26.82
2023-04-21T00:54:33.341Z,26.85
2023-04-21T00:55:33.384Z,26.85
2023-04-21T00:56:33.410Z,26.85
2023-04-21T00:57:33.480Z,26.82
2023-04-21T00:58:33.546Z,26.83
2023-04-21T00:59:33.562Z,26.83
2023-04-21T01:00:33.602Z,26.83
2023-04-21T01:01:33.609Z,26.83
2023-04-21T01:02:33.773Z,26.82
2023-04-21T01:03:33.945Z,26.82
2023-04-21T01:04:33.792Z,26.83
2023-04-21T01:05:33.842Z,26.81
2023-04-21T01:06:33.871Z,26.85
2023-04-21T01:07:33.931Z,26.83
2023-04-21T01:08:33.985Z,26.83
2023-04-21T01:09:34.081Z,26.85
2023-04-21T01:10:34.083Z,26.82
2023-04-21T01:11:34.062Z,26.83
2023-04-21T01:12:34.113Z,26.83
2023-04-21T01:13:34.131Z,26.83
2023-04-21T01:14:34.147Z,26.82
2023-04-21T01:15:34.136Z,26.82
2023-04-21T01:16:34.177Z,26.83
2023-04-21T01:17:34.185Z,26.85
2023-04-21T01:18:34.175Z,26.83
2023-04-21T01:19:34.253Z,26.82
2023-04-21T01:20:34.242Z,26.83
2023-04-21T01:21:34.261Z,26.85
2023-04-21T01:22:34.246Z,26.82
2023-04-21T01:23:34.304Z,26.81
2023-04-21T01:24:34.307Z,26.81
2023-04-21T01:25:34.314Z,26.82
2023-04-21T01:26:34.311Z,26.81
2023-04-21T01:27:34.337Z,26.79
2023-04-21T01:28:34.371Z,26.82
2023-04-21T01:29:34.388Z,26.79
2023-04-21T01:30:34.369Z,26.81
2023-04-21T01:31:34.531Z,26.79
2023-04-21T01:32:34.432Z,26.79
2023-04-21T01:33:34.407Z,26.81
2023-04-21T01:34:34.393Z,26.78
2023-04-21T01:35:34.449Z,26.79
2023-04-21T01:36:34.458Z,26.82
2023-04-21T01:37:34.471Z,26.82
2023-04-21T01:38:34.499Z,26.82
2023-04-21T01:39:34.476Z,26.82
2023-04-21T01:40:34.510Z,26.82
2023-04-21T01:41:34.485Z,26.81
2023-04-21T01:42:34.519Z,26.83
2023-04-21T01:43:34.544Z,26.82
2023-04-21T01:44:34.544Z,26.83
2023-04-21T01:45:34.573Z,26.83
2023-04-21T01:46:34.566Z,26.85
2023-04-21T01:47:34.600Z,26.86
2023-04-21T01:48:34.575Z,26.85
2023-04-21T01:49:34.578Z,26.87
2023-04-21T01:50:34.614Z,26.86
2023-04-21T01:51:34.609Z,26.89
2023-04-21T01:52:34.592Z,26.90
2023-04-21T01:53:34.621Z,26.90
2023-04-21T01:54:34.602Z,26.92
2023-04-21T01:55:34.609Z,26.92
2023-04-21T01:56:34.633Z,26.95
2023-04-21T01:57:34.627Z,26.96
2023-04-21T01:58:34.640Z,26.97
2023-04-21T01:59:34.636Z,27.00
2023-04-21T02:00:34.615Z,26.99
2023-04-21T02:01:34.640Z,27.03
2023-04-21T02:02:34.689Z,27.05
2023-04-21T02:03:34.792Z,27.06
2023-04-21T02:04:34.763Z,27.09
2023-04-21T02:05:34.613Z,27.09
2023-04-21T02:06:34.626Z,27.13
2023-04-21T02:07:34.619Z,27.11
2023-04-21T02:08:34.666Z,27.16
2023-04-21T02:09:34.665Z,27.14
2023-04-21T02:10:34.666Z,27.17
2023-04-21T02:11:34.706Z,27.20
2023-04-21T02:12:34.732Z,27.20
2023-04-21T02:13:34.759Z,27.22
2023-04-21T02:14:34.810Z,27.22
2023-04-21T02:15:34.839Z,27.22
2023-04-21T02:16:34.857Z,27.25
2023-04-21T02:17:34.903Z,27.26
2023-04-21T02:18:34.864Z,27.26
2023-04-21T02:19:34.924Z,27.27
2023-04-21T02:20:34.952Z,27.26
2023-04-21T02:21:35.018Z,27.30
2023-04-21T02:22:35.107Z,27.29
2023-04-21T02:23:35.140Z,27.29
2023-04-21T02:24:35.189Z,27.32
2023-04-21T02:25:35.283Z,27.30
2023-04-21T02:26:35.328Z,27.32
2023-04-21T02:27:35.403Z,27.34
2023-04-21T02:28:35.409Z,27.33
2023-04-21T02:29:35.421Z,27.34
2023-04-21T02:30:35.438Z,27.34
2023-04-21T02:31:45.987Z,27.33
2023-04-21T02:32:36.592Z,27.34
2023-04-21T02:33:35.450Z,27.37
2023-04-21T02:34:35.461Z,27.37
2023-04-21T02:35:35.461Z,27.37
2023-04-21T02:36:35.447Z,27.37
2023-04-21T02:37:35.432Z,27.37
2023-04-21T02:38:35.413Z,27.40
2023-04-21T02:39:35.398Z,27.37
2023-04-21T02:40:35.411Z,27.40
2023-04-21T02:41:35.463Z,27.38
2023-04-21T02:42:35.420Z,27.41
2023-04-21T02:43:35.453Z,27.41
2023-04-21T02:44:35.387Z,27.40
2023-04-21T02:45:35.351Z,27.44
2023-04-21T02:46:35.412Z,27.43
2023-04-21T02:47:35.350Z,27.43
2023-04-21T02:48:35.362Z,27.41
2023-04-21T02:49:35.322Z,27.41
2023-04-21T02:50:35.323Z,27.43
2023-04-21T02:51:35.331Z,27.43
2023-04-21T02:52:35.331Z,27.44
2023-04-21T02:53:35.326Z,27.46
2023-04-21T02:54:35.355Z,27.47
2023-04-21T02:55:35.341Z,27.47
2023-04-21T02:56:35.385Z,27.47
2023-04-21T02:57:35.383Z,27.47
2023-04-21T02:58:35.403Z,27.47
2023-04-21T02:59:35.401Z,27.48
2023-04-21T03:00:35.471Z,27.48
2023-04-21T03:01:35.434Z,27.48
2023-04-21T03:02:35.619Z,27.48
2023-04-21T03:03:35.547Z,27.50
2023-04-21T03:04:35.533Z,27.51
2023-04-21T03:05:35.511Z,27.47
2023-04-21T03:06:35.505Z,27.51
2023-04-21T03:07:35.529Z,27.51
2023-04-21T03:08:35.550Z,27.50
2023-04-21T03:09:35.528Z,27.51
2023-04-21T03:10:35.536Z,27.50
2023-04-21T03:11:35.548Z,27.53
2023-04-21T03:12:35.569Z,27.53
2023-04-21T03:13:35.557Z,27.54
2023-04-21T03:14:35.700Z,27.53
2023-04-21T03:15:35.722Z,27.54
2023-04-21T03:16:35.854Z,27.53
2023-04-21T03:17:35.831Z,27.53
2023-04-21T03:18:35.792Z,27.56
2023-04-21T03:19:35.797Z,27.54
2023-04-21T03:20:35.806Z,27.54
2023-04-21T03:21:35.784Z,27.54
2023-04-21T03:22:35.784Z,27.53
2023-04-21T03:23:35.809Z,27.57
2023-04-21T03:24:35.818Z,27.54
2023-04-21T03:25:35.836Z,27.54
2023-04-21T03:26:35.851Z,27.54
2023-04-21T03:27:35.854Z,27.53
2023-04-21T03:28:35.868Z,27.54
2023-04-21T03:29:35.836Z,27.56
2023-04-21T03:30:35.848Z,27.54
2023-04-21T03:31:35.903Z,27.56
2023-04-21T03:32:35.934Z,27.56
2023-04-21T03:33:35.846Z,27.54
2023-04-21T03:34:35.933Z,27.56
2023-04-21T03:35:35.875Z,27.56
2023-04-21T03:36:35.864Z,27.56
2023-04-21T03:37:35.893Z,27.54
2023-04-21T03:38:35.919Z,27.56
2023-04-21T03:39:35.913Z,27.56
2023-04-21T03:40:35.933Z,27.57
2023-04-21T03:41:35.895Z,27.60
2023-04-21T03:42:35.907Z,27.60
2023-04-21T03:43:35.925Z,27.57
2023-04-21T03:44:35.940Z,27.57
2023-04-21T03:45:36.098Z,27.60
2023-04-21T03:46:35.971Z,27.58
2023-04-21T03:47:36.050Z,27.61
2023-04-21T03:48:36.047Z,27.60
2023-04-21T03:49:36.074Z,27.61
2023-04-21T03:50:36.056Z,27.60
2023-04-21T03:51:36.054Z,27.60
2023-04-21T03:52:36.066Z,27.60
2023-04-21T03:53:36.066Z,27.61
2023-04-21T03:54:36.057Z,27.61
2023-04-21T03:55:36.068Z,27.60
2023-04-21T03:56:36.067Z,27.61
2023-04-21T03:57:36.071Z,27.62
2023-04-21T03:58:36.039Z,27.61
2023-04-21T03:59:36.059Z,27.61
2023-04-21T04:00:36.050Z,27.61
2023-04-21T04:01:36.076Z,27.62
2023-04-21T04:02:36.199Z,27.61
2023-04-21T04:03:36.176Z,27.62
2023-04-21T04:04:36.125Z,27.62
2023-04-21T04:05:36.162Z,27.64
2023-04-21T04:06:36.121Z,27.65
2023-04-21T04:07:36.161Z,27.61
2023-04-21T04:08:36.237Z,27.62
2023-04-21T04:09:36.254Z,27.62
2023-04-21T04:10:36.314Z,27.62
2023-04-21T04:11:36.332Z,27.62
2023-04-21T04:12:36.347Z,27.64
2023-04-21T04:13:36.382Z,27.64
2023-04-21T04:14:36.354Z,27.65
2023-04-21T04:15:36.373Z,27.65
2023-04-21T04:16:36.334Z,27.64
2023-04-21T04:17:36.420Z,27.64
2023-04-21T04:18:36.331Z,27.65
2023-04-21T04:19:36.310Z,27.64
2023-04-21T04:20:37.332Z,27.64
2023-04-21T04:21:36.336Z,27.62
2023-04-21T04:22:36.307Z,27.64
2023-04-21T04:23:36.298Z,27.67
2023-04-21T04:24:36.285Z,27.65
2023-04-21T04:25:36.291Z,27.67
2023-04-21T04:26:36.312Z,27.67
2023-04-21T04:27:36.261Z,27.68
2023-04-21T04:28:36.293Z,27.68
2023-04-21T04:29:36.298Z,27.67
2023-04-21T04:30:36.327Z,27.67
2023-04-21T04:31:36.364Z,27.65
2023-04-21T04:32:36.350Z,27.67
2023-04-21T04:33:36.358Z,27.68
2023-04-21T04:34:36.379Z,27.68
2023-04-21T04:35:36.440Z,27.68
2023-04-21T04:36:36.452Z,27.68
2023-04-21T04:37:36.489Z,27.70
2023-04-21T04:38:36.531Z,27.71
2023-04-21T04:39:36.560Z,27.71
2023-04-21T04:40:36.572Z,27.71
2023-04-21T04:41:36.564Z,27.71
2023-04-21T04:42:36.569Z,27.71
2023-04-21T04:43:36.544Z,27.70
2023-04-21T04:44:36.542Z,27.72
2023-04-21T04:45:36.524Z,27.68
2023-04-21T04:46:36.607Z,27.70
2023-04-21T04:47:36.554Z,27.70
2023-04-21T04:48:36.573Z,27.70
2023-04-21T04:49:36.573Z,27.71
2023-04-21T04:50:36.575Z,27.71
2023-04-21T04:51:36.636Z,27.70
2023-04-21T04:52:36.542Z,27.71
2023-04-21T04:53:36.558Z,27.71
2023-04-21T04:54:36.551Z,27.71
2023-04-21T04:55:36.561Z,27.72
2023-04-21T04:56:36.543Z,27.74
2023-04-21T04:57:36.558Z,27.74
2023-04-21T04:58:36.532Z,27.74
2023-04-21T04:59:36.524Z,27.74
2023-04-21T05:00:43.554Z,27.72
2023-04-21T05:01:36.550Z,27.75
2023-04-21T05:02:36.681Z,27.74
2023-04-21T05:03:36.807Z,27.72
2023-04-21T05:04:36.675Z,27.72
2023-04-21T05:05:36.511Z,27.74
2023-04-21T05:06:36.529Z,27.74
2023-04-21T05:07:36.494Z,27.75
2023-04-21T05:08:36.490Z,27.74
2023-04-21T05:09:36.515Z,27.74
2023-04-21T05:10:36.498Z,27.71
2023-04-21T05:11:36.501Z,27.74
2023-04-21T05:12:36.467Z,27.72
2023-04-21T05:13:39.104Z,27.75
2023-04-21T05:14:36.491Z,27.74
2023-04-21T05:15:36.457Z,27.74
2023-04-21T05:16:36.486Z,27.71
2023-04-21T05:17:36.473Z,27.72
2023-04-21T05:18:36.449Z,27.72
2023-04-21T05:19:36.434Z,27.72
2023-04-21T05:20:36.415Z,27.71
2023-04-21T05:21:36.429Z,27.71
2023-04-21T05:22:36.416Z,27.71
2023-04-21T05:23:36.381Z,27.71
2023-04-21T05:24:36.378Z,27.70
2023-04-21T05:25:36.389Z,27.70
2023-04-21T05:26:36.354Z,27.68
2023-04-21T05:27:36.327Z,27.65
2023-04-21T05:28:36.377Z,27.64
2023-04-21T05:29:36.352Z,27.62
2023-04-21T05:30:36.320Z,27.62
2023-04-21T05:31:36.345Z,27.58
2023-04-21T05:32:36.416Z,27.61
2023-04-21T05:33:36.294Z,27.57
2023-04-21T05:34:36.383Z,27.56
2023-04-21T05:35:38.044Z,27.50
2023-04-21T05:36:36.279Z,27.50
2023-04-21T05:37:36.302Z,27.46
2023-04-21T05:38:36.262Z,27.47
2023-04-21T05:39:36.286Z,27.46
2023-04-21T05:40:36.275Z,27.43
2023-04-21T05:41:36.255Z,27.46
2023-04-21T05:42:36.241Z,27.43
2023-04-21T05:43:36.238Z,27.43
2023-04-21T05:44:36.320Z,27.44
2023-04-21T05:45:43.401Z,27.44
2023-04-21T05:46:36.439Z,27.43
2023-04-21T05:47:36.375Z,27.41
2023-04-21T05:48:36.365Z,27.46
2023-04-21T05:49:36.366Z,27.47
2023-04-21T05:50:36.322Z,27.46
2023-04-21T05:51:36.308Z,27.48
2023-04-21T05:52:36.328Z,27.50
2023-04-21T05:53:36.330Z,27.53
2023-04-21T05:54:36.307Z,27.54
2023-04-21T05:55:36.293Z,27.56
2023-04-21T05:56:36.311Z,27.54
2023-04-21T05:57:36.292Z,27.58
2023-04-21T05:58:36.304Z,27.56
2023-04-21T05:59:36.410Z,27.56
2023-04-21T06:00:36.285Z,27.56
2023-04-21T06:01:36.280Z,27.57
2023-04-21T06:02:36.373Z,27.58
2023-04-21T06:03:36.591Z,27.60
2023-04-21T06:04:36.452Z,27.60
2023-04-21T06:05:36.271Z,27.61
2023-04-21T06:06:36.253Z,27.58
2023-04-21T06:07:36.225Z,27.60
2023-04-21T06:08:36.221Z,27.60
2023-04-21T06:09:36.264Z,27.60
2023-04-21T06:10:36.221Z,27.60
2023-04-21T06:11:36.195Z,27.61
2023-04-21T06:12:36.192Z,27.61
2023-04-21T06:13:38.369Z,27.60
2023-04-21T06:14:36.166Z,27.61
2023-04-21T06:15:36.159Z,27.58
2023-04-21T06:16:36.274Z,27.58
2023-04-21T06:17:36.165Z,27.57
2023-04-21T06:18:36.164Z,27.61
2023-04-21T06:19:36.114Z,27.58
2023-04-21T06:20:36.125Z,27.60
2023-04-21T06:21:36.164Z,27.61
2023-04-21T06:22:36.119Z,27.62
2023-04-21T06:23:36.121Z,27.62
2023-04-21T06:24:36.109Z,27.64
2023-04-21T06:25:36.108Z,27.64
2023-04-21T06:26:36.120Z,27.64
2023-04-21T06:27:36.085Z,27.65
2023-04-21T06:28:36.127Z,27.62
2023-04-21T06:29:36.064Z,27.64
2023-04-21T06:30:36.103Z,27.62
2023-04-21T06:31:36.124Z,27.67
2023-04-21T06:32:36.145Z,27.70
2023-04-21T06:33:36.148Z,27.70
2023-04-21T06:34:36.059Z,27.70
2023-04-21T06:35:36.060Z,27.72
2023-04-21T06:36:36.051Z,27.77
2023-04-21T06:37:36.002Z,27.74
2023-04-21T06:38:35.983Z,27.72
2023-04-21T06:39:36.030Z,27.74
2023-04-21T06:40:36.021Z,27.80
2023-04-21T06:41:35.965Z,27.80
2023-04-21T06:42:35.975Z,27.81
2023-04-21T06:43:36.002Z,27.81
2023-04-21T06:44:35.956Z,27.80
2023-04-21T06:45:35.922Z,27.83
2023-04-21T06:46:36.031Z,27.81
2023-04-21T06:47:35.951Z,27.78
2023-04-21T06:48:35.944Z,27.74
2023-04-21T06:49:35.920Z,27.70
2023-04-21T06:50:35.928Z,27.67
2023-04-21T06:51:35.908Z,27.64
2023-04-21T06:52:35.884Z,27.62
2023-04-21T06:53:35.918Z,27.64
2023-04-21T06:54:35.882Z,27.60
2023-04-21T06:55:35.889Z,27.60
2023-04-21T06:56:35.856Z,27.62
2023-04-21T06:57:35.894Z,27.62
2023-04-21T06:58:35.887Z,27.64
2023-04-21T06:59:35.859Z,27.65
2023-04-21T07:00:35.858Z,27.62
2023-04-21T07:01:35.864Z,27.60
2023-04-21T07:02:35.931Z,27.60
2023-04-21T07:03:35.992Z,27.61
2023-04-21T07:04:35.907Z,27.65
2023-04-21T07:05:35.798Z,27.68
2023-04-21T07:06:35.800Z,27.74
2023-04-21T07:07:35.804Z,27.78
2023-04-21T07:08:35.775Z,27.77
2023-04-21T07:09:35.826Z,27.78
2023-04-21T07:10:35.786Z,27.83
2023-04-21T07:11:35.805Z,27.83
2023-04-21T07:12:35.787Z,27.84
2023-04-21T07:13:35.749Z,27.84
2023-04-21T07:14:35.884Z,27.83
2023-04-21T07:15:35.802Z,27.83
2023-04-21T07:16:35.900Z,27.84
2023-04-21T07:17:35.915Z,27.87
2023-04-21T07:18:35.905Z,27.85
2023-04-21T07:19:35.900Z,27.87
2023-04-21T07:20:35.902Z,27.87
2023-04-21T07:21:35.927Z,27.89
2023-04-21T07:22:35.890Z,27.88
2023-04-21T07:23:35.919Z,27.85
2023-04-21T07:24:35.943Z,27.85
2023-04-21T07:25:35.963Z,27.89
2023-04-21T07:26:35.980Z,27.89
2023-04-21T07:27:35.981Z,27.92
2023-04-21T07:28:36.030Z,27.94
2023-04-21T07:29:36.024Z,27.97
2023-04-21T07:30:36.007Z,27.89
2023-04-21T07:31:36.113Z,27.58
2023-04-21T07:32:36.066Z,27.60
2023-04-21T07:33:36.060Z,27.43
2023-04-21T07:34:36.101Z,27.41
2023-04-21T07:35:36.090Z,27.33
2023-04-21T07:36:36.174Z,27.32
2023-04-21T07:37:36.165Z,27.25
2023-04-21T07:38:36.241Z,27.13
2023-04-21T07:39:36.508Z,27.03
2023-04-21T07:40:36.360Z,26.93
2023-04-21T07:41:36.379Z,26.78
2023-04-21T07:42:36.421Z,26.76
2023-04-21T07:43:36.450Z,26.76
2023-04-21T07:44:36.479Z,26.75
2023-04-21T07:45:36.478Z,26.72
2023-04-21T07:46:36.583Z,26.63
2023-04-21T07:47:36.537Z,26.46
2023-04-21T07:48:36.544Z,26.36
2023-04-21T07:49:36.586Z,26.32
2023-04-21T07:50:36.607Z,26.30
2023-04-21T07:51:36.644Z,26.28
2023-04-21T07:52:36.664Z,26.31
2023-04-21T07:53:36.679Z,26.32
2023-04-21T07:54:36.961Z,26.36
2023-04-21T07:55:36.690Z,26.42
2023-04-21T07:56:36.734Z,26.46
2023-04-21T07:57:36.691Z,26.49
2023-04-21T07:58:36.782Z,26.54
2023-04-21T07:59:36.732Z,26.62
2023-04-21T08:00:36.821Z,26.66
2023-04-21T08:01:36.837Z,26.74
2023-04-21T08:02:36.992Z,26.78
2023-04-21T08:03:37.135Z,26.83
2023-04-21T08:04:37.705Z,26.87
2023-04-21T08:05:40.863Z,26.93
2023-04-21T08:06:37.083Z,27.00
2023-04-21T08:07:37.050Z,27.03
2023-04-21T08:08:37.054Z,27.09
2023-04-21T08:09:37.018Z,27.10
2023-04-21T08:10:37.458Z,27.10
2023-04-21T08:11:37.009Z,27.14
2023-04-21T08:12:36.990Z,27.16
2023-04-21T08:13:37.000Z,27.17
2023-04-21T08:14:37.552Z,27.19
2023-04-21T08:15:36.978Z,27.23
2023-04-21T08:16:36.996Z,27.22
2023-04-21T08:17:37.044Z,27.25
2023-04-21T08:18:36.936Z,27.23
2023-04-21T08:19:36.970Z,27.26
2023-04-21T08:20:36.959Z,27.32
2023-04-21T08:21:36.977Z,27.32
2023-04-21T08:22:36.961Z,27.34
2023-04-21T08:23:36.896Z,27.30
2023-04-21T08:24:36.892Z,27.32
2023-04-21T08:25:36.940Z,27.32
2023-04-21T08:26:36.879Z,27.30
2023-04-21T08:27:36.873Z,27.29
2023-04-21T08:28:37.233Z,27.25
2023-04-21T08:29:36.893Z,27.22
2023-04-21T08:30:36.968Z,27.20
2023-04-21T08:31:36.926Z,27.20
2023-04-21T08:32:36.915Z,27.23
2023-04-21T08:33:43.893Z,27.25
2023-04-21T08:34:37.875Z,27.27
2023-04-21T08:35:36.991Z,27.26
2023-04-21T08:36:36.834Z,27.23
2023-04-21T08:37:36.856Z,27.20
2023-04-21T08:38:36.796Z,27.19
2023-04-21T08:39:36.788Z,27.14
2023-04-21T08:40:36.794Z,27.13
2023-04-21T08:41:36.756Z,27.11
2023-04-21T08:42:36.738Z,27.09
2023-04-21T08:43:36.787Z,27.09
2023-04-21T08:44:36.755Z,27.07
2023-04-21T08:45:36.923Z,27.10
2023-04-21T08:46:36.725Z,27.09
2023-04-21T08:47:36.784Z,27.11
2023-04-21T08:48:36.702Z,27.13
2023-04-21T08:49:36.723Z,27.14
2023-04-21T08:50:36.995Z,27.11
2023-04-21T08:51:36.685Z,27.07
2023-04-21T08:52:36.768Z,27.11
2023-04-21T08:53:36.710Z,27.11
2023-04-21T08:54:36.671Z,27.13
2023-04-21T08:55:36.692Z,27.14
2023-04-21T08:56:36.655Z,27.16
2023-04-21T08:57:36.669Z,27.14
2023-04-21T08:58:36.662Z,27.11
2023-04-21T08:59:36.638Z,27.11
2023-04-21T09:00:37.004Z,27.11
2023-04-21T09:01:36.690Z,27.11
2023-04-21T09:02:36.722Z,27.17
2023-04-21T09:03:36.799Z,27.17
2023-04-21T09:04:36.761Z,27.17
2023-04-21T09:05:40.665Z,27.19
2023-04-21T09:06:37.648Z,27.20
2023-04-21T09:07:36.725Z,27.23
2023-04-21T09:08:36.671Z,27.25
2023-04-21T09:09:36.678Z,27.27
2023-04-21T09:10:36.605Z,27.32
2023-04-21T09:11:37.416Z,27.34
2023-04-21T09:12:36.597Z,27.38
2023-04-21T09:13:36.626Z,27.37
2023-04-21T09:14:36.625Z,27.41
2023-04-21T09:15:36.968Z,27.43
2023-04-21T09:16:36.634Z,27.43
2023-04-21T09:17:36.737Z,27.43
2023-04-21T09:18:36.568Z,27.44
2023-04-21T09:19:36.553Z,27.41
2023-04-21T09:20:36.581Z,27.38
2023-04-21T09:21:36.557Z,27.40
2023-04-21T09:22:36.550Z,27.38
2023-04-21T09:23:36.511Z,27.37
2023-04-21T09:24:36.563Z,27.37
2023-04-21T09:25:36.529Z,27.34
2023-04-21T09:26:36.995Z,27.29
2023-04-21T09:27:36.578Z,27.32
2023-04-21T09:28:36.614Z,27.36
2023-04-21T09:29:36.601Z,27.37
2023-04-21T09:30:36.654Z,27.37
2023-04-21T09:31:36.814Z,27.38
2023-04-21T09:32:36.674Z,27.41
2023-04-21T09:33:42.617Z,27.46
2023-04-21T09:34:37.677Z,27.47
2023-04-21T09:35:36.686Z,27.51
2023-04-21T09:36:36.639Z,27.53
2023-04-21T09:37:36.710Z,27.61
2023-04-21T09:38:36.615Z,27.62
2023-04-21T09:39:49.332Z,27.67
2023-04-21T09:40:37.601Z,27.68
2023-04-21T09:41:37.021Z,27.68
2023-04-21T09:42:39.658Z,27.71
2023-04-21T09:43:36.582Z,27.68
2023-04-21T09:44:47.371Z,27.61
2023-04-21T09:45:40.661Z,27.60
2023-04-21T09:46:36.637Z,27.60
2023-04-21T09:47:36.602Z,27.62
2023-04-21T09:48:36.557Z,27.65
2023-04-21T09:49:36.541Z,27.65
2023-04-21T09:52:37.508Z,27.75
2023-04-21T09:53:36.547Z,27.77
2023-04-21T09:54:36.699Z,27.75
2023-04-21T09:55:36.512Z,27.81
2023-04-21T09:56:36.511Z,27.84
2023-04-21T09:57:36.504Z,27.84
2023-04-21T09:58:36.489Z,27.84
2023-04-21T09:59:36.480Z,27.87
2023-04-21T10:00:36.452Z,27.89
2023-04-21T10:01:36.586Z,27.92
2023-04-21T10:02:36.590Z,27.94
2023-04-21T10:03:36.619Z,27.94
2023-04-21T10:04:36.713Z,27.94
2023-04-21T10:05:37.774Z,27.98
2023-04-21T10:06:36.435Z,27.94
2023-04-21T10:07:36.480Z,27.89
2023-04-21T10:08:36.436Z,27.88
2023-04-21T10:09:36.386Z,27.89
2023-04-21T10:10:36.420Z,27.88
2023-04-21T10:11:36.435Z,27.84
2023-04-21T10:12:36.412Z,27.84
2023-04-21T10:13:36.387Z,27.81
2023-04-21T10:14:37.052Z,27.81
2023-04-21T10:15:36.388Z,27.81
2023-04-21T10:16:36.706Z,27.84
2023-04-21T10:17:36.550Z,27.84
2023-04-21T10:18:36.576Z,27.87
2023-04-21T10:19:36.595Z,27.88
2023-04-21T10:20:36.660Z,27.89
2023-04-21T10:21:37.049Z,27.87
2023-04-21T10:22:36.734Z,27.87
2023-04-21T10:23:36.708Z,27.88
2023-04-21T10:24:36.759Z,27.87
2023-04-21T10:25:36.812Z,27.88
2023-04-21T10:26:36.857Z,27.89
2023-04-21T10:27:36.886Z,27.88
2023-04-21T10:28:37.326Z,27.87
2023-04-21T10:29:52.560Z,27.87
2023-04-21T10:30:37.934Z,27.87
2023-04-21T10:31:36.881Z,27.89
2023-04-21T10:32:37.027Z,27.87
2023-04-21T10:33:36.861Z,27.84
2023-04-21T10:34:36.890Z,27.88
2023-04-21T10:35:36.919Z,27.87
2023-04-21T10:36:37.033Z,27.87
2023-04-21T10:37:36.842Z,27.88
2023-04-21T10:38:36.872Z,27.89
2023-04-21T10:39:36.889Z,27.88
2023-04-21T10:40:44.153Z,27.89
2023-04-21T10:41:38.059Z,27.89
2023-04-21T10:42:36.946Z,27.89
2023-04-21T10:43:36.794Z,27.91
2023-04-21T10:44:36.806Z,27.92
2023-04-21T10:45:36.810Z,27.94
2023-04-21T10:46:36.947Z,27.92
2023-04-21T10:47:36.876Z,27.92
2023-04-21T10:48:36.760Z,27.94
2023-04-21T10:49:36.777Z,27.97
2023-04-21T10:50:38.995Z,27.98
2023-04-21T10:51:36.785Z,27.98
2023-04-21T10:52:36.751Z,27.99
2023-04-21T10:53:36.733Z,27.99
2023-04-21T10:54:36.777Z,28.01
2023-04-21T10:55:36.745Z,28.01
2023-04-21T10:56:38.647Z,27.99
2023-04-21T10:57:37.061Z,27.99
2023-04-21T10:58:36.690Z,27.98
2023-04-21T10:59:36.698Z,27.98
2023-04-21T11:00:36.795Z,27.99
2023-04-21T11:01:36.734Z,27.99
2023-04-21T11:02:39.138Z,28.02
2023-04-21T11:03:36.932Z,28.02
2023-04-21T11:04:37.000Z,28.04
2023-04-21T11:05:36.678Z,28.02
2023-04-21T11:06:36.646Z,28.04
2023-04-21T11:07:37.226Z,28.05
2023-04-21T11:08:38.264Z,28.02
2023-04-21T11:09:36.629Z,28.02
2023-04-21T11:10:36.637Z,28.02
2023-04-21T11:11:36.645Z,28.02
2023-04-21T11:12:37.029Z,28.04
2023-04-21T11:13:36.597Z,28.02
2023-04-21T11:14:37.020Z,28.05
2023-04-21T11:15:36.594Z,28.05
2023-04-21T11:16:36.665Z,28.05
2023-04-21T11:17:37.070Z,28.05
2023-04-21T11:18:36.623Z,28.08
2023-04-21T11:19:36.600Z,28.08
2023-04-21T11:20:36.594Z,28.05
2023-04-21T11:21:36.610Z,28.08
2023-04-21T11:22:37.020Z,28.07
2023-04-21T11:23:36.553Z,28.08
2023-04-21T11:24:36.540Z,28.12
2023-04-21T11:25:36.568Z,28.07
2023-04-21T11:26:36.542Z,28.11
2023-04-21T11:27:36.506Z,28.11
2023-04-21T11:28:36.653Z,28.11
2023-04-21T11:29:36.491Z,28.11
2023-04-21T11:30:36.545Z,28.08
2023-04-21T11:31:36.650Z,28.12
2023-04-21T11:32:38.284Z,28.12
2023-04-21T11:33:36.502Z,28.13
2023-04-21T11:34:36.494Z,28.12
2023-04-21T11:35:36.466Z,28.13
2023-04-21T11:36:36.479Z,28.12
2023-04-21T11:37:36.469Z,28.12
2023-04-21T11:38:36.454Z,28.12
2023-04-21T11:39:36.471Z,28.12
2023-04-21T11:40:36.446Z,28.13
2023-04-21T11:41:36.513Z,28.13
2023-04-21T11:42:36.574Z,28.12
2023-04-21T11:43:36.636Z,28.12
2023-04-21T11:44:36.620Z,28.12
2023-04-21T11:45:36.730Z,28.15
2023-04-21T11:46:36.810Z,28.13
2023-04-21T11:47:36.838Z,28.15
2023-04-21T11:48:36.831Z,28.15
2023-04-21T11:49:36.881Z,28.16
2023-04-21T11:50:36.954Z,28.16
2023-04-21T11:51:37.000Z,28.18
2023-04-21T11:52:37.041Z,28.15
2023-04-21T11:53:37.070Z,28.16
2023-04-21T11:54:37.107Z,28.16
2023-04-21T11:55:37.216Z,28.18
2023-04-21T11:56:37.207Z,28.18
2023-04-21T11:57:37.268Z,28.19
2023-04-21T11:58:37.326Z,28.18
2023-04-21T11:59:37.347Z,28.21
2023-04-21T12:00:37.396Z,28.22
2023-04-21T12:01:37.417Z,28.23
2023-04-21T12:02:37.534Z,28.22
2023-04-21T12:03:37.570Z,28.22
2023-04-21T12:04:37.586Z,28.19
2023-04-21T12:05:37.490Z,28.22
2023-04-21T12:06:37.436Z,28.23
2023-04-21T12:07:37.432Z,28.22
2023-04-21T12:08:37.424Z,28.22
2023-04-21T12:09:37.487Z,28.22
2023-04-21T12:10:37.460Z,28.23
2023-04-21T12:11:37.449Z,28.26
2023-04-21T12:12:37.452Z,28.25
2023-04-21T12:13:37.472Z,28.25
2023-04-21T12:14:37.464Z,28.23
2023-04-21T12:15:37.463Z,28.21
2023-04-21T12:16:37.935Z,28.25
2023-04-21T12:17:37.533Z,28.23
2023-04-21T12:18:37.490Z,28.25
2023-04-21T12:19:37.504Z,28.26
2023-04-21T12:20:37.502Z,28.26
2023-04-21T12:21:37.600Z,28.26
2023-04-21T12:22:37.641Z,28.28
2023-04-21T12:23:37.706Z,28.25
2023-04-21T12:24:37.763Z,28.26
2023-04-21T12:25:37.808Z,28.25
2023-04-21T12:26:37.836Z,28.28
2023-04-21T12:27:37.902Z,28.28
2023-04-21T12:28:37.961Z,28.29
2023-04-21T12:29:38.035Z,28.28
2023-04-21T12:30:40.893Z,28.29
2023-04-21T12:31:38.152Z,28.29
2023-04-21T12:32:38.077Z,28.29
2023-04-21T12:33:38.129Z,28.32
2023-04-21T12:34:38.040Z,28.31
2023-04-21T12:35:38.080Z,28.31
2023-04-21T12:36:38.020Z,28.32
2023-04-21T12:37:38.024Z,28.31
2023-04-21T12:38:38.036Z,28.31
2023-04-21T12:39:38.045Z,28.32
2023-04-21T12:40:38.025Z,28.34
2023-04-21T12:41:38.006Z,28.32
2023-04-21T12:42:38.494Z,28.31
2023-04-21T12:43:37.981Z,28.32
2023-04-21T12:44:38.010Z,28.32
2023-04-21T12:45:37.990Z,28.31
2023-04-21T12:46:37.966Z,28.31
2023-04-21T12:47:38.013Z,28.34
2023-04-21T12:48:37.961Z,28.34
2023-04-21T12:49:37.928Z,28.32
2023-04-21T12:50:38.017Z,28.34
2023-04-21T12:51:38.099Z,28.32
2023-04-21T12:52:38.128Z,28.34
2023-04-21T12:53:38.202Z,28.32
2023-04-21T12:54:38.232Z,28.32